sensor_id;sensor_type;location;lat;lon;timestamp;pressure;altitude;pressure_sealevel;temperature;humidity
37832;BME280;23671;38.090;-122.570;2023-02-13T00:00:24;101255.78;;;16.26;73.64
37832;BME280;23671;38.090;-122.570;2023-02-13T00:02:51;101253.97;;;16.26;73.18
37832;BME280;23671;38.090;-122.570;2023-02-13T00:05:18;101257.75;;;16.24;74.14
37832;BME280;23671;38.090;-122.570;2023-02-13T00:07:45;101249.78;;;16.24;74.37
37832;BME280;23671;38.090;-122.570;2023-02-13T00:10:14;101244.31;;;16.25;73.35
37832;BME280;23671;38.090;-122.570;2023-02-13T00:12:42;101250.47;;;16.26;73.99
37832;BME280;23671;38.090;-122.570;2023-02-13T00:15:09;101238.13;;;16.25;73.71
37832;BME280;23671;38.090;-122.570;2023-02-13T00:17:36;101235.31;;;16.26;74.07
37832;BME280;23671;38.090;-122.570;2023-02-13T00:20:04;101237.16;;;16.26;73.97
37832;BME280;23671;38.090;-122.570;2023-02-13T00:22:35;101240.50;;;16.28;73.67
37832;BME280;23671;38.090;-122.570;2023-02-13T00:25:04;101234.78;;;16.23;73.59
37832;BME280;23671;38.090;-122.570;2023-02-13T00:27:31;101234.66;;;16.15;74.01
37832;BME280;23671;38.090;-122.570;2023-02-13T00:29:58;101235.75;;;16.22;73.31
37832;BME280;23671;38.090;-122.570;2023-02-13T00:32:25;101232.28;;;16.21;72.60
37832;BME280;23671;38.090;-122.570;2023-02-13T00:34:52;101230.16;;;16.25;70.94
37832;BME280;23671;38.090;-122.570;2023-02-13T00:37:20;101229.03;;;16.18;71.92
37832;BME280;23671;38.090;-122.570;2023-02-13T00:39:47;101223.59;;;16.19;71.35
37832;BME280;23671;38.090;-122.570;2023-02-13T00:42:14;101229.69;;;16.29;70.12
37832;BME280;23671;38.090;-122.570;2023-02-13T00:44:41;101228.56;;;16.32;69.98
37832;BME280;23671;38.090;-122.570;2023-02-13T00:47:08;101224.94;;;16.33;69.91
37832;BME280;23671;38.090;-122.570;2023-02-13T00:49:35;101232.31;;;16.39;70.16
37832;BME280;23671;38.090;-122.570;2023-02-13T00:52:02;101224.75;;;16.44;69.71
37832;BME280;23671;38.090;-122.570;2023-02-13T00:54:29;101216.75;;;16.44;68.92
37832;BME280;23671;38.090;-122.570;2023-02-13T00:56:56;101214.34;;;16.41;69.35
37832;BME280;23671;38.090;-122.570;2023-02-13T00:59:23;101224.06;;;16.42;68.89
37832;BME280;23671;38.090;-122.570;2023-02-13T01:01:50;101216.22;;;16.41;68.78
37832;BME280;23671;38.090;-122.570;2023-02-13T01:04:17;101215.34;;;16.40;68.59
37832;BME280;23671;38.090;-122.570;2023-02-13T01:06:44;101209.03;;;16.41;68.45
37832;BME280;23671;38.090;-122.570;2023-02-13T01:09:11;101207.38;;;16.40;67.56
37832;BME280;23671;38.090;-122.570;2023-02-13T01:11:38;101210.03;;;16.40;66.90
37832;BME280;23671;38.090;-122.570;2023-02-13T01:14:05;101206.66;;;16.38;66.23
37832;BME280;23671;38.090;-122.570;2023-02-13T01:16:33;101215.41;;;16.30;67.51
37832;BME280;23671;38.090;-122.570;2023-02-13T01:19:00;101203.88;;;16.30;66.05
37832;BME280;23671;38.090;-122.570;2023-02-13T01:21:27;101207.97;;;16.24;64.19
37832;BME280;23671;38.090;-122.570;2023-02-13T01:23:54;101208.53;;;16.28;64.19
37832;BME280;23671;38.090;-122.570;2023-02-13T01:26:24;101208.97;;;16.23;64.53
37832;BME280;23671;38.090;-122.570;2023-02-13T01:28:54;101209.09;;;16.22;64.68
37832;BME280;23671;38.090;-122.570;2023-02-13T01:31:23;101203.78;;;16.22;64.80
37832;BME280;23671;38.090;-122.570;2023-02-13T01:33:51;101208.72;;;16.17;65.45
37832;BME280;23671;38.090;-122.570;2023-02-13T01:36:18;101203.69;;;16.14;65.65
37832;BME280;23671;38.090;-122.570;2023-02-13T01:38:45;101207.47;;;16.11;65.65
37832;BME280;23671;38.090;-122.570;2023-02-13T01:41:12;101209.72;;;16.06;65.52
37832;BME280;23671;38.090;-122.570;2023-02-13T01:43:57;101213.78;;;16.01;66.01
37832;BME280;23671;38.090;-122.570;2023-02-13T01:46:26;101215.91;;;15.97;66.30
37832;BME280;23671;38.090;-122.570;2023-02-13T01:49:00;101221.38;;;15.96;65.91
37832;BME280;23671;38.090;-122.570;2023-02-13T01:51:33;101219.44;;;15.88;65.16
37832;BME280;23671;38.090;-122.570;2023-02-13T01:54:05;101220.72;;;15.84;65.33
37832;BME280;23671;38.090;-122.570;2023-02-13T01:56:40;101222.53;;;15.84;65.21
37832;BME280;23671;38.090;-122.570;2023-02-13T01:59:23;101220.84;;;15.83;65.52
37832;BME280;23671;38.090;-122.570;2023-02-13T02:01:51;101219.16;;;15.82;65.70
37832;BME280;23671;38.090;-122.570;2023-02-13T02:04:30;101224.50;;;15.72;65.54
37832;BME280;23671;38.090;-122.570;2023-02-13T02:07:07;101226.75;;;15.67;65.47
37832;BME280;23671;38.090;-122.570;2023-02-13T02:09:38;101225.75;;;15.68;65.74
37832;BME280;23671;38.090;-122.570;2023-02-13T02:12:31;101218.78;;;15.58;65.92
37832;BME280;23671;38.090;-122.570;2023-02-13T02:15:01;101216.38;;;15.55;66.42
37832;BME280;23671;38.090;-122.570;2023-02-13T02:17:29;101220.88;;;15.54;66.29
37832;BME280;23671;38.090;-122.570;2023-02-13T02:25:47;101211.06;;;15.55;66.26
37832;BME280;23671;38.090;-122.570;2023-02-13T02:28:45;101210.38;;;15.53;66.28
37832;BME280;23671;38.090;-122.570;2023-02-13T02:34:22;101210.25;;;15.44;66.16
37832;BME280;23671;38.090;-122.570;2023-02-13T02:36:57;101212.44;;;15.39;66.22
37832;BME280;23671;38.090;-122.570;2023-02-13T02:42:44;101213.28;;;15.30;66.09
37832;BME280;23671;38.090;-122.570;2023-02-13T02:48:32;101211.31;;;15.23;66.48
37832;BME280;23671;38.090;-122.570;2023-02-13T02:51:47;101210.19;;;15.16;66.49
37832;BME280;23671;38.090;-122.570;2023-02-13T02:54:58;101205.41;;;15.10;66.22
37832;BME280;23671;38.090;-122.570;2023-02-13T02:57:44;101214.78;;;15.04;66.64
37832;BME280;23671;38.090;-122.570;2023-02-13T03:00:34;101223.31;;;14.98;66.83
37832;BME280;23671;38.090;-122.570;2023-02-13T03:03:22;101221.22;;;14.92;66.85
37832;BME280;23671;38.090;-122.570;2023-02-13T03:06:14;101221.63;;;14.88;66.86
37832;BME280;23671;38.090;-122.570;2023-02-13T03:09:04;101226.63;;;14.81;66.85
37832;BME280;23671;38.090;-122.570;2023-02-13T03:11:53;101226.34;;;14.75;66.86
37832;BME280;23671;38.090;-122.570;2023-02-13T03:14:39;101222.69;;;14.66;67.03
37832;BME280;23671;38.090;-122.570;2023-02-13T03:17:11;101225.75;;;14.62;66.92
37832;BME280;23671;38.090;-122.570;2023-02-13T03:23:13;101238.31;;;14.50;66.96
37832;BME280;23671;38.090;-122.570;2023-02-13T03:28:51;101244.66;;;14.38;67.09
37832;BME280;23671;38.090;-122.570;2023-02-13T03:38:17;101245.25;;;14.21;66.69
37832;BME280;23671;38.090;-122.570;2023-02-13T03:40:49;101256.41;;;14.15;66.34
37832;BME280;23671;38.090;-122.570;2023-02-13T03:44:05;101253.41;;;14.08;66.63
37832;BME280;23671;38.090;-122.570;2023-02-13T03:46:32;101258.44;;;14.02;66.24
37832;BME280;23671;38.090;-122.570;2023-02-13T03:49:03;101258.09;;;13.95;66.78
37832;BME280;23671;38.090;-122.570;2023-02-13T03:51:58;101249.78;;;13.89;66.55
37832;BME280;23671;38.090;-122.570;2023-02-13T03:54:45;101249.34;;;13.84;66.82
37832;BME280;23671;38.090;-122.570;2023-02-13T03:57:34;101242.97;;;13.75;66.89
37832;BME280;23671;38.090;-122.570;2023-02-13T04:00:21;101252.06;;;13.73;66.57
37832;BME280;23671;38.090;-122.570;2023-02-13T04:05:25;101249.56;;;13.60;66.73
37832;BME280;23671;38.090;-122.570;2023-02-13T04:07:54;101251.66;;;13.56;66.42
37832;BME280;23671;38.090;-122.570;2023-02-13T04:10:22;101247.44;;;13.54;66.11
37832;BME280;23671;38.090;-122.570;2023-02-13T04:15:47;101240.88;;;13.37;66.74
37832;BME280;23671;38.090;-122.570;2023-02-13T04:18:27;101245.47;;;13.35;65.98
37832;BME280;23671;38.090;-122.570;2023-02-13T04:20:55;101248.25;;;13.34;66.49
37832;BME280;23671;38.090;-122.570;2023-02-13T04:23:22;101244.28;;;13.28;66.64
37832;BME280;23671;38.090;-122.570;2023-02-13T04:25:51;101248.03;;;13.26;66.61
37832;BME280;23671;38.090;-122.570;2023-02-13T04:28:19;101252.75;;;13.22;66.72
37832;BME280;23671;38.090;-122.570;2023-02-13T04:30:46;101248.88;;;13.15;67.13
37832;BME280;23671;38.090;-122.570;2023-02-13T04:33:15;101247.34;;;13.13;66.44
37832;BME280;23671;38.090;-122.570;2023-02-13T04:35:42;101247.72;;;13.08;66.86
37832;BME280;23671;38.090;-122.570;2023-02-13T04:38:09;101249.03;;;13.03;67.09
37832;BME280;23671;38.090;-122.570;2023-02-13T04:40:36;101249.16;;;13.01;66.78
37832;BME280;23671;38.090;-122.570;2023-02-13T04:43:03;101249.66;;;12.95;66.90
37832;BME280;23671;38.090;-122.570;2023-02-13T04:45:30;101235.19;;;12.88;67.01
37832;BME280;23671;38.090;-122.570;2023-02-13T04:47:58;101250.63;;;12.83;66.61
37832;BME280;23671;38.090;-122.570;2023-02-13T04:50:25;101256.06;;;12.82;66.88
37832;BME280;23671;38.090;-122.570;2023-02-13T04:52:55;101253.88;;;12.75;66.81
37832;BME280;23671;38.090;-122.570;2023-02-13T04:55:22;101249.91;;;12.70;67.07
37832;BME280;23671;38.090;-122.570;2023-02-13T04:57:52;101249.91;;;12.70;66.86
37832;BME280;23671;38.090;-122.570;2023-02-13T05:00:21;101249.31;;;12.66;66.74
37832;BME280;23671;38.090;-122.570;2023-02-13T05:02:48;101242.47;;;12.64;65.96
37832;BME280;23671;38.090;-122.570;2023-02-13T05:05:16;101233.19;;;12.58;66.79
37832;BME280;23671;38.090;-122.570;2023-02-13T05:07:43;101233.06;;;12.49;66.68
37832;BME280;23671;38.090;-122.570;2023-02-13T05:10:11;101250.63;;;12.50;66.63
37832;BME280;23671;38.090;-122.570;2023-02-13T05:12:38;101253.75;;;12.44;65.83
37832;BME280;23671;38.090;-122.570;2023-02-13T05:15:06;101258.59;;;12.39;66.11
37832;BME280;23671;38.090;-122.570;2023-02-13T05:17:33;101264.22;;;12.34;66.30
37832;BME280;23671;38.090;-122.570;2023-02-13T05:20:00;101265.34;;;12.32;66.00
37832;BME280;23671;38.090;-122.570;2023-02-13T05:22:27;101270.72;;;12.30;66.03
37832;BME280;23671;38.090;-122.570;2023-02-13T05:25:12;101274.69;;;12.25;66.25
37832;BME280;23671;38.090;-122.570;2023-02-13T05:27:39;101284.69;;;12.21;65.68
37832;BME280;23671;38.090;-122.570;2023-02-13T05:30:07;101285.16;;;12.15;66.40
37832;BME280;23671;38.090;-122.570;2023-02-13T05:32:34;101289.84;;;12.12;65.61
37832;BME280;23671;38.090;-122.570;2023-02-13T05:35:01;101287.91;;;12.14;65.59
37832;BME280;23671;38.090;-122.570;2023-02-13T05:37:28;101283.47;;;12.03;66.06
37832;BME280;23671;38.090;-122.570;2023-02-13T05:39:55;101270.69;;;11.97;65.89
37832;BME280;23671;38.090;-122.570;2023-02-13T05:42:22;101274.88;;;11.88;66.27
37832;BME280;23671;38.090;-122.570;2023-02-13T05:44:49;101268.00;;;11.86;66.21
37832;BME280;23671;38.090;-122.570;2023-02-13T05:47:16;101261.16;;;11.83;66.37
37832;BME280;23671;38.090;-122.570;2023-02-13T05:49:43;101266.44;;;11.83;65.88
37832;BME280;23671;38.090;-122.570;2023-02-13T05:52:10;101278.06;;;11.70;66.18
37832;BME280;23671;38.090;-122.570;2023-02-13T05:54:37;101269.56;;;11.65;66.74
37832;BME280;23671;38.090;-122.570;2023-02-13T05:57:05;101270.66;;;11.62;66.22
37832;BME280;23671;38.090;-122.570;2023-02-13T05:59:32;101259.81;;;11.54;66.41
37832;BME280;23671;38.090;-122.570;2023-02-13T06:01:59;101258.22;;;11.52;66.44
37832;BME280;23671;38.090;-122.570;2023-02-13T06:04:26;101253.91;;;11.51;66.52
37832;BME280;23671;38.090;-122.570;2023-02-13T06:06:53;101248.22;;;11.44;66.61
37832;BME280;23671;38.090;-122.570;2023-02-13T06:09:20;101256.41;;;11.41;66.57
37832;BME280;23671;38.090;-122.570;2023-02-13T06:11:47;101244.97;;;11.41;66.11
37832;BME280;23671;38.090;-122.570;2023-02-13T06:14:14;101239.06;;;11.37;66.18
37832;BME280;23671;38.090;-122.570;2023-02-13T06:16:41;101246.28;;;11.35;66.33
37832;BME280;23671;38.090;-122.570;2023-02-13T06:19:09;101240.56;;;11.29;66.06
37832;BME280;23671;38.090;-122.570;2023-02-13T06:21:36;101239.97;;;11.25;65.96
37832;BME280;23671;38.090;-122.570;2023-02-13T06:24:04;101237.03;;;11.17;66.49
37832;BME280;23671;38.090;-122.570;2023-02-13T06:26:32;101240.34;;;11.08;66.52
37832;BME280;23671;38.090;-122.570;2023-02-13T06:28:59;101230.66;;;11.09;66.64
37832;BME280;23671;38.090;-122.570;2023-02-13T06:31:26;101221.25;;;11.05;66.78
37832;BME280;23671;38.090;-122.570;2023-02-13T06:33:53;101236.81;;;10.96;66.81
37832;BME280;23671;38.090;-122.570;2023-02-13T06:36:20;101233.56;;;10.93;66.80
37832;BME280;23671;38.090;-122.570;2023-02-13T06:38:47;101222.88;;;10.82;67.08
37832;BME280;23671;38.090;-122.570;2023-02-13T06:41:15;101232.00;;;10.78;67.26
37832;BME280;23671;38.090;-122.570;2023-02-13T06:43:42;101221.97;;;10.70;67.46
37832;BME280;23671;38.090;-122.570;2023-02-13T06:46:09;101223.25;;;10.65;67.40
37832;BME280;23671;38.090;-122.570;2023-02-13T06:48:36;101227.19;;;10.59;67.51
37832;BME280;23671;38.090;-122.570;2023-02-13T06:51:03;101221.16;;;10.57;67.70
37832;BME280;23671;38.090;-122.570;2023-02-13T06:53:30;101216.22;;;10.53;67.75
37832;BME280;23671;38.090;-122.570;2023-02-13T06:55:57;101207.66;;;10.49;67.76
37832;BME280;23671;38.090;-122.570;2023-02-13T06:58:25;101211.47;;;10.45;67.71
37832;BME280;23671;38.090;-122.570;2023-02-13T07:00:52;101191.63;;;10.40;67.45
37832;BME280;23671;38.090;-122.570;2023-02-13T07:03:19;101218.38;;;10.35;67.76
37832;BME280;23671;38.090;-122.570;2023-02-13T07:05:46;101213.41;;;10.31;67.75
37832;BME280;23671;38.090;-122.570;2023-02-13T07:08:18;101203.81;;;10.30;67.94
37832;BME280;23671;38.090;-122.570;2023-02-13T07:10:45;101223.34;;;10.27;67.97
37832;BME280;23671;38.090;-122.570;2023-02-13T07:13:12;101219.34;;;10.22;67.86
37832;BME280;23671;38.090;-122.570;2023-02-13T07:15:39;101213.50;;;10.17;67.81
37832;BME280;23671;38.090;-122.570;2023-02-13T07:18:06;101207.84;;;10.10;67.91
37832;BME280;23671;38.090;-122.570;2023-02-13T07:20:33;101203.31;;;10.12;68.14
37832;BME280;23671;38.090;-122.570;2023-02-13T07:23:02;101202.72;;;10.07;67.91
37832;BME280;23671;38.090;-122.570;2023-02-13T07:25:30;101206.63;;;10.01;67.91
37832;BME280;23671;38.090;-122.570;2023-02-13T07:28:05;101201.78;;;9.95;68.08
37832;BME280;23671;38.090;-122.570;2023-02-13T07:30:33;101194.72;;;9.96;68.51
37832;BME280;23671;38.090;-122.570;2023-02-13T07:33:01;101184.59;;;9.90;68.23
37832;BME280;23671;38.090;-122.570;2023-02-13T07:35:29;101184.88;;;9.85;68.47
37832;BME280;23671;38.090;-122.570;2023-02-13T07:37:57;101176.47;;;9.80;68.20
37832;BME280;23671;38.090;-122.570;2023-02-13T07:40:26;101174.56;;;9.82;68.54
37832;BME280;23671;38.090;-122.570;2023-02-13T07:42:53;101168.78;;;9.77;68.51
37832;BME280;23671;38.090;-122.570;2023-02-13T07:45:20;101158.53;;;9.73;68.67
37832;BME280;23671;38.090;-122.570;2023-02-13T07:47:47;101168.63;;;9.66;68.39
37832;BME280;23671;38.090;-122.570;2023-02-13T07:50:14;101151.44;;;9.61;68.72
37832;BME280;23671;38.090;-122.570;2023-02-13T07:52:41;101166.41;;;9.60;68.67
37832;BME280;23671;38.090;-122.570;2023-02-13T07:55:08;101149.22;;;9.55;69.02
37832;BME280;23671;38.090;-122.570;2023-02-13T07:57:37;101148.47;;;9.53;68.48
37832;BME280;23671;38.090;-122.570;2023-02-13T08:00:04;101154.81;;;9.50;68.75
37832;BME280;23671;38.090;-122.570;2023-02-13T08:02:31;101148.06;;;9.46;68.38
37832;BME280;23671;38.090;-122.570;2023-02-13T08:04:58;101143.09;;;9.42;68.54
37832;BME280;23671;38.090;-122.570;2023-02-13T08:07:25;101147.63;;;9.40;68.32
37832;BME280;23671;38.090;-122.570;2023-02-13T08:09:52;101151.41;;;9.36;68.67
37832;BME280;23671;38.090;-122.570;2023-02-13T08:12:38;101143.09;;;9.29;68.99
37832;BME280;23671;38.090;-122.570;2023-02-13T08:15:05;101156.28;;;9.29;68.64
37832;BME280;23671;38.090;-122.570;2023-02-13T08:17:33;101143.28;;;9.26;69.18
37832;BME280;23671;38.090;-122.570;2023-02-13T08:20:00;101145.19;;;9.24;68.53
37832;BME280;23671;38.090;-122.570;2023-02-13T08:22:27;101154.97;;;9.22;69.01
37832;BME280;23671;38.090;-122.570;2023-02-13T08:24:54;101163.09;;;9.19;68.47
37832;BME280;23671;38.090;-122.570;2023-02-13T08:27:21;101177.63;;;9.12;68.53
37832;BME280;23671;38.090;-122.570;2023-02-13T08:29:49;101184.56;;;9.13;69.24
37832;BME280;23671;38.090;-122.570;2023-02-13T08:32:17;101169.91;;;9.09;69.05
37832;BME280;23671;38.090;-122.570;2023-02-13T08:34:44;101185.06;;;9.05;69.25
37832;BME280;23671;38.090;-122.570;2023-02-13T08:37:11;101171.06;;;9.05;68.93
37832;BME280;23671;38.090;-122.570;2023-02-13T08:39:38;101170.31;;;9.03;68.59
37832;BME280;23671;38.090;-122.570;2023-02-13T08:42:05;101159.97;;;9.00;69.31
37832;BME280;23671;38.090;-122.570;2023-02-13T08:44:32;101172.41;;;8.98;69.26
37832;BME280;23671;38.090;-122.570;2023-02-13T08:46:59;101171.66;;;8.96;68.74
37832;BME280;23671;38.090;-122.570;2023-02-13T08:49:30;101177.22;;;8.91;69.37
37832;BME280;23671;38.090;-122.570;2023-02-13T08:51:57;101178.28;;;8.89;69.16
37832;BME280;23671;38.090;-122.570;2023-02-13T08:54:24;101168.88;;;8.85;68.89
37832;BME280;23671;38.090;-122.570;2023-02-13T08:56:51;101163.81;;;8.82;68.61
37832;BME280;23671;38.090;-122.570;2023-02-13T08:59:18;101163.81;;;8.82;68.65
37832;BME280;23671;38.090;-122.570;2023-02-13T09:01:46;101154.22;;;8.81;68.54
37832;BME280;23671;38.090;-122.570;2023-02-13T09:04:13;101159.50;;;8.81;68.84
37832;BME280;23671;38.090;-122.570;2023-02-13T09:06:46;101152.00;;;8.75;69.37
37832;BME280;23671;38.090;-122.570;2023-02-13T09:09:13;101154.72;;;8.73;68.83
37832;BME280;23671;38.090;-122.570;2023-02-13T09:11:41;101146.91;;;8.72;68.88
37832;BME280;23671;38.090;-122.570;2023-02-13T09:14:08;101152.16;;;8.72;68.78
37832;BME280;23671;38.090;-122.570;2023-02-13T09:16:35;101147.22;;;8.67;68.84
37832;BME280;23671;38.090;-122.570;2023-02-13T09:19:02;101141.00;;;8.68;68.85
37832;BME280;23671;38.090;-122.570;2023-02-13T09:21:29;101126.66;;;8.60;68.69
37832;BME280;23671;38.090;-122.570;2023-02-13T09:23:57;101124.97;;;8.59;69.14
37832;BME280;23671;38.090;-122.570;2023-02-13T09:26:24;101119.69;;;8.59;69.13
37832;BME280;23671;38.090;-122.570;2023-02-13T09:28:51;101112.94;;;8.55;69.35
37832;BME280;23671;38.090;-122.570;2023-02-13T09:31:19;101118.31;;;8.53;69.21
37832;BME280;23671;38.090;-122.570;2023-02-13T09:33:47;101109.75;;;8.50;69.25
37832;BME280;23671;38.090;-122.570;2023-02-13T09:36:17;101103.53;;;8.51;68.70
37832;BME280;23671;38.090;-122.570;2023-02-13T09:38:47;101115.94;;;8.49;69.23
37832;BME280;23671;38.090;-122.570;2023-02-13T09:41:25;101108.81;;;8.51;68.58
37832;BME280;23671;38.090;-122.570;2023-02-13T09:49:13;101116.66;;;8.38;69.11
37832;BME280;23671;38.090;-122.570;2023-02-13T09:51:47;101111.56;;;8.35;68.85
37832;BME280;23671;38.090;-122.570;2023-02-13T09:54:18;101110.66;;;8.36;68.63
37832;BME280;23671;38.090;-122.570;2023-02-13T10:02:41;101122.41;;;8.31;68.82
37832;BME280;23671;38.090;-122.570;2023-02-13T10:05:52;101127.09;;;8.25;68.48
37832;BME280;23671;38.090;-122.570;2023-02-13T10:11:31;101121.00;;;8.25;68.52
37832;BME280;23671;38.090;-122.570;2023-02-13T10:22:04;101108.09;;;8.20;68.14
37832;BME280;23671;38.090;-122.570;2023-02-13T10:27:24;101104.84;;;8.17;68.74
37832;BME280;23671;38.090;-122.570;2023-02-13T10:30:21;101108.50;;;8.14;68.50
37832;BME280;23671;38.090;-122.570;2023-02-13T10:32:58;101106.06;;;8.11;68.32
37832;BME280;23671;38.090;-122.570;2023-02-13T10:35:52;101107.84;;;8.11;67.82
37832;BME280;23671;38.090;-122.570;2023-02-13T10:38:22;101101.56;;;8.13;67.80
37832;BME280;23671;38.090;-122.570;2023-02-13T10:49:28;101118.47;;;8.09;68.18
37832;BME280;23671;38.090;-122.570;2023-02-13T10:52:24;101111.41;;;8.10;67.28
37832;BME280;23671;38.090;-122.570;2023-02-13T10:55:20;101106.63;;;8.02;68.06
37832;BME280;23671;38.090;-122.570;2023-02-13T10:58:04;101102.22;;;8.03;67.67
37832;BME280;23671;38.090;-122.570;2023-02-13T11:03:21;101098.94;;;7.99;67.38
37832;BME280;23671;38.090;-122.570;2023-02-13T11:05:49;101103.44;;;7.97;67.86
37832;BME280;23671;38.090;-122.570;2023-02-13T11:08:37;101092.06;;;7.97;67.67
37832;BME280;23671;38.090;-122.570;2023-02-13T11:11:32;101087.19;;;7.91;68.00
37832;BME280;23671;38.090;-122.570;2023-02-13T11:14:18;101084.66;;;7.89;67.83
37832;BME280;23671;38.090;-122.570;2023-02-13T11:16:58;101079.97;;;7.94;67.20
37832;BME280;23671;38.090;-122.570;2023-02-13T11:22:00;101087.13;;;7.92;67.52
37832;BME280;23671;38.090;-122.570;2023-02-13T11:24:29;101082.91;;;7.90;67.45
37832;BME280;23671;38.090;-122.570;2023-02-13T11:27:06;101092.00;;;7.84;66.99
37832;BME280;23671;38.090;-122.570;2023-02-13T11:30:00;101092.94;;;7.83;67.32
37832;BME280;23671;38.090;-122.570;2023-02-13T11:32:32;101095.56;;;7.83;66.92
37832;BME280;23671;38.090;-122.570;2023-02-13T11:35:27;101081.59;;;7.83;66.89
37832;BME280;23671;38.090;-122.570;2023-02-13T11:40:52;101072.38;;;7.76;67.24
37832;BME280;23671;38.090;-122.570;2023-02-13T11:43:43;101065.44;;;7.75;67.31
37832;BME280;23671;38.090;-122.570;2023-02-13T11:46:22;101074.34;;;7.72;67.05
37832;BME280;23671;38.090;-122.570;2023-02-13T11:48:58;101069.19;;;7.71;67.28
37832;BME280;23671;38.090;-122.570;2023-02-13T11:51:53;101069.38;;;7.68;67.30
37832;BME280;23671;38.090;-122.570;2023-02-13T11:54:26;101068.72;;;7.64;67.53
37832;BME280;23671;38.090;-122.570;2023-02-13T11:56:57;101068.72;;;7.64;67.37
37832;BME280;23671;38.090;-122.570;2023-02-13T11:59:28;101071.44;;;7.63;67.36
37832;BME280;23671;38.090;-122.570;2023-02-13T12:02:30;101080.19;;;7.63;67.17
37832;BME280;23671;38.090;-122.570;2023-02-13T12:05:18;101078.69;;;7.59;66.93
37832;BME280;23671;38.090;-122.570;2023-02-13T12:07:47;101083.28;;;7.56;67.20
37832;BME280;23671;38.090;-122.570;2023-02-13T12:10:32;101087.78;;;7.54;67.14
37832;BME280;23671;38.090;-122.570;2023-02-13T12:13:23;101067.78;;;7.51;67.14
37832;BME280;23671;38.090;-122.570;2023-02-13T12:15:59;101084.47;;;7.50;67.51
37832;BME280;23671;38.090;-122.570;2023-02-13T12:18:33;101081.84;;;7.50;67.26
37832;BME280;23671;38.090;-122.570;2023-02-13T12:21:21;101091.69;;;7.47;67.26
37832;BME280;23671;38.090;-122.570;2023-02-13T12:46:19;101080.34;;;7.32;67.19
37832;BME280;23671;38.090;-122.570;2023-02-13T13:02:55;101087.44;;;7.16;67.65
37832;BME280;23671;38.090;-122.570;2023-02-13T13:08:17;101064.75;;;7.15;67.39
37832;BME280;23671;38.090;-122.570;2023-02-13T13:13:31;101082.47;;;7.11;67.29
37832;BME280;23671;38.090;-122.570;2023-02-13T13:19:13;101077.56;;;7.05;67.66
37832;BME280;23671;38.090;-122.570;2023-02-13T13:27:03;101083.19;;;6.99;67.51
37832;BME280;23671;38.090;-122.570;2023-02-13T13:33:40;101084.47;;;6.92;67.91
37832;BME280;23671;38.090;-122.570;2023-02-13T13:36:04;101082.97;;;6.88;67.91
37832;BME280;23671;38.090;-122.570;2023-02-13T13:44:02;101081.34;;;6.86;67.72
37832;BME280;23671;38.090;-122.570;2023-02-13T13:46:49;101090.84;;;6.88;67.72
37832;BME280;23671;38.090;-122.570;2023-02-13T13:54:47;101099.31;;;6.78;67.65
37832;BME280;23671;38.090;-122.570;2023-02-13T14:03:20;101089.16;;;6.72;67.88
37832;BME280;23671;38.090;-122.570;2023-02-13T14:06:23;101103.25;;;6.71;67.85
37832;BME280;23671;38.090;-122.570;2023-02-13T14:08:59;101105.78;;;6.72;67.61
37832;BME280;23671;38.090;-122.570;2023-02-13T14:11:43;101113.75;;;6.71;67.49
37832;BME280;23671;38.090;-122.570;2023-02-13T14:14:44;101120.84;;;6.69;67.54
37832;BME280;23671;38.090;-122.570;2023-02-13T14:17:14;101121.19;;;6.63;67.65
37832;BME280;23671;38.090;-122.570;2023-02-13T14:19:45;101118.66;;;6.61;67.66
37832;BME280;23671;38.090;-122.570;2023-02-13T14:24:52;101124.25;;;6.55;68.08
37832;BME280;23671;38.090;-122.570;2023-02-13T14:27:34;101124.34;;;6.54;68.11
37832;BME280;23671;38.090;-122.570;2023-02-13T14:30:21;101112.47;;;6.47;68.17
37832;BME280;23671;38.090;-122.570;2023-02-13T14:32:51;101112.47;;;6.47;68.29
37832;BME280;23671;38.090;-122.570;2023-02-13T14:35:27;101130.84;;;6.47;68.21
37832;BME280;23671;38.090;-122.570;2023-02-13T14:37:57;101137.84;;;6.46;67.92
37832;BME280;23671;38.090;-122.570;2023-02-13T14:43:02;101145.06;;;6.42;68.28
37832;BME280;23671;38.090;-122.570;2023-02-13T14:45:52;101139.31;;;6.36;68.51
37832;BME280;23671;38.090;-122.570;2023-02-13T14:48:21;101151.38;;;6.38;67.91
37832;BME280;23671;38.090;-122.570;2023-02-13T14:50:52;101161.72;;;6.41;67.76
37832;BME280;23671;38.090;-122.570;2023-02-13T14:53:57;101177.56;;;6.40;68.07
37832;BME280;23671;38.090;-122.570;2023-02-13T14:56:19;101170.59;;;6.39;67.84
37832;BME280;23671;38.090;-122.570;2023-02-13T14:59:09;101171.59;;;6.36;67.93
37832;BME280;23671;38.090;-122.570;2023-02-13T15:01:47;101173.47;;;6.34;67.84
37832;BME280;23671;38.090;-122.570;2023-02-13T15:06:49;101182.47;;;6.30;68.23
37832;BME280;23671;38.090;-122.570;2023-02-13T15:11:50;101195.63;;;6.29;68.17
37832;BME280;23671;38.090;-122.570;2023-02-13T15:14:32;101197.75;;;6.22;68.60
37832;BME280;23671;38.090;-122.570;2023-02-13T15:17:15;101197.56;;;6.25;68.13
37832;BME280;23671;38.090;-122.570;2023-02-13T15:19:52;101192.22;;;6.27;68.04
37832;BME280;23671;38.090;-122.570;2023-02-13T15:22:40;101195.03;;;6.24;68.13
37832;BME280;23671;38.090;-122.570;2023-02-13T15:25:34;101188.03;;;6.24;68.53
37832;BME280;23671;38.090;-122.570;2023-02-13T15:28:04;101193.28;;;6.24;67.83
37832;BME280;23671;38.090;-122.570;2023-02-13T15:30:34;101198.56;;;6.23;67.93